sensor_id;sensor_type;location;lat;lon;timestamp;temperature;humidity
25440;DHT22;13365;52.208;5.488;2023-02-15T00:01:23;7.60;89.80
25440;DHT22;13365;52.208;5.488;2023-02-15T00:03:49;7.60;89.50
25440;DHT22;13365;52.208;5.488;2023-02-15T00:06:14;7.50;89.40
25440;DHT22;13365;52.208;5.488;2023-02-15T00:08:40;7.50;89.20
25440;DHT22;13365;52.208;5.488;2023-02-15T00:11:10;7.50;89.00
25440;DHT22;13365;52.208;5.488;2023-02-15T00:13:36;7.20;88.90
25440;DHT22;13365;52.208;5.488;2023-02-15T00:16:05;7.20;89.70
25440;DHT22;13365;52.208;5.488;2023-02-15T00:18:31;7.30;89.70
25440;DHT22;13365;52.208;5.488;2023-02-15T00:20:57;7.40;89.70
25440;DHT22;13365;52.208;5.488;2023-02-15T00:23:23;7.40;89.60
25440;DHT22;13365;52.208;5.488;2023-02-15T00:25:49;7.40;89.50
25440;DHT22;13365;52.208;5.488;2023-02-15T00:28:15;7.40;89.70
25440;DHT22;13365;52.208;5.488;2023-02-15T00:30:41;7.40;89.70
25440;DHT22;13365;52.208;5.488;2023-02-15T00:33:06;7.40;89.70
25440;DHT22;13365;52.208;5.488;2023-02-15T00:35:32;7.40;89.70
25440;DHT22;13365;52.208;5.488;2023-02-15T00:37:57;7.40;89.80
25440;DHT22;13365;52.208;5.488;2023-02-15T00:40:23;7.30;89.80
25440;DHT22;13365;52.208;5.488;2023-02-15T00:42:48;7.40;90.10
25440;DHT22;13365;52.208;5.488;2023-02-15T00:45:14;7.50;90.10
25440;DHT22;13365;52.208;5.488;2023-02-15T00:47:39;7.40;90.00
25440;DHT22;13365;52.208;5.488;2023-02-15T00:50:05;7.30;90.00
25440;DHT22;13365;52.208;5.488;2023-02-15T00:52:31;7.40;90.10
25440;DHT22;13365;52.208;5.488;2023-02-15T00:54:57;7.40;90.10
25440;DHT22;13365;52.208;5.488;2023-02-15T00:57:22;7.40;90.10
25440;DHT22;13365;52.208;5.488;2023-02-15T00:59:48;7.50;90.10
25440;DHT22;13365;52.208;5.488;2023-02-15T01:02:13;7.50;90.00
25440;DHT22;13365;52.208;5.488;2023-02-15T01:04:39;7.40;90.00
25440;DHT22;13365;52.208;5.488;2023-02-15T01:07:04;7.40;90.00
25440;DHT22;13365;52.208;5.488;2023-02-15T01:09:30;7.40;90.10
25440;DHT22;13365;52.208;5.488;2023-02-15T01:11:56;7.50;90.10
25440;DHT22;13365;52.208;5.488;2023-02-15T01:14:22;7.40;89.90
25440;DHT22;13365;52.208;5.488;2023-02-15T01:16:48;7.30;90.30
25440;DHT22;13365;52.208;5.488;2023-02-15T01:19:13;7.20;89.60
25440;DHT22;13365;52.208;5.488;2023-02-15T01:21:39;7.10;89.70
25440;DHT22;13365;52.208;5.488;2023-02-15T01:24:12;7.10;89.80
25440;DHT22;13365;52.208;5.488;2023-02-15T01:26:38;7.20;90.00
25440;DHT22;13365;52.208;5.488;2023-02-15T01:29:03;7.20;89.70
25440;DHT22;13365;52.208;5.488;2023-02-15T01:31:29;7.20;89.40
25440;DHT22;13365;52.208;5.488;2023-02-15T01:33:54;7.20;89.00
25440;DHT22;13365;52.208;5.488;2023-02-15T01:36:20;7.20;88.90
25440;DHT22;13365;52.208;5.488;2023-02-15T01:38:45;7.10;88.80
25440;DHT22;13365;52.208;5.488;2023-02-15T01:41:11;7.10;89.70
25440;DHT22;13365;52.208;5.488;2023-02-15T01:46:38;7.00;88.80
25440;DHT22;13365;52.208;5.488;2023-02-15T01:49:10;6.90;89.00
25440;DHT22;13365;52.208;5.488;2023-02-15T01:51:38;6.90;89.40
25440;DHT22;13365;52.208;5.488;2023-02-15T01:54:39;6.90;89.80
25440;DHT22;13365;52.208;5.488;2023-02-15T01:57:03;7.00;89.90
25440;DHT22;13365;52.208;5.488;2023-02-15T01:59:30;7.00;89.90
25440;DHT22;13365;52.208;5.488;2023-02-15T02:01:58;7.00;90.00
25440;DHT22;13365;52.208;5.488;2023-02-15T02:04:33;7.00;90.00
25440;DHT22;13365;52.208;5.488;2023-02-15T02:07:00;7.00;90.00
25440;DHT22;13365;52.208;5.488;2023-02-15T02:09:26;7.00;90.00
25440;DHT22;13365;52.208;5.488;2023-02-15T02:11:52;7.00;89.90
25440;DHT22;13365;52.208;5.488;2023-02-15T02:14:20;7.10;89.70
25440;DHT22;13365;52.208;5.488;2023-02-15T02:17:12;7.00;89.20
25440;DHT22;13365;52.208;5.488;2023-02-15T02:20:17;7.00;89.30
25440;DHT22;13365;52.208;5.488;2023-02-15T02:31:06;6.80;89.50
25440;DHT22;13365;52.208;5.488;2023-02-15T02:39:14;6.60;89.90
25440;DHT22;13365;52.208;5.488;2023-02-15T02:44:25;6.80;90.00
25440;DHT22;13365;52.208;5.488;2023-02-15T02:46:54;6.70;89.90
25440;DHT22;13365;52.208;5.488;2023-02-15T02:49:43;6.70;89.90
25440;DHT22;13365;52.208;5.488;2023-02-15T02:52:35;6.70;89.80
25440;DHT22;13365;52.208;5.488;2023-02-15T02:55:03;6.60;89.90
25440;DHT22;13365;52.208;5.488;2023-02-15T02:57:31;6.60;90.00
25440;DHT22;13365;52.208;5.488;2023-02-15T02:59:58;6.50;90.00
25440;DHT22;13365;52.208;5.488;2023-02-15T03:02:29;6.70;90.30
25440;DHT22;13365;52.208;5.488;2023-02-15T03:05:03;6.60;90.60
25440;DHT22;13365;52.208;5.488;2023-02-15T03:07:31;6.60;90.90
25440;DHT22;13365;52.208;5.488;2023-02-15T03:10:02;6.70;91.20
25440;DHT22;13365;52.208;5.488;2023-02-15T03:12:37;6.80;91.30
25440;DHT22;13365;52.208;5.488;2023-02-15T03:15:05;6.70;91.30
25440;DHT22;13365;52.208;5.488;2023-02-15T03:17:33;6.70;91.20
25440;DHT22;13365;52.208;5.488;2023-02-15T03:20:03;6.80;91.10
25440;DHT22;13365;52.208;5.488;2023-02-15T03:22:41;7.00;91.40
25440;DHT22;13365;52.208;5.488;2023-02-15T03:25:13;7.00;91.50
25440;DHT22;13365;52.208;5.488;2023-02-15T03:27:44;7.20;91.70
25440;DHT22;13365;52.208;5.488;2023-02-15T03:30:12;7.10;91.50
25440;DHT22;13365;52.208;5.488;2023-02-15T03:32:39;7.10;91.50
25440;DHT22;13365;52.208;5.488;2023-02-15T03:35:07;7.20;91.70
25440;DHT22;13365;52.208;5.488;2023-02-15T03:37:48;7.20;91.60
25440;DHT22;13365;52.208;5.488;2023-02-15T03:40:30;7.10;91.50
25440;DHT22;13365;52.208;5.488;2023-02-15T03:43:24;7.20;91.60
25440;DHT22;13365;52.208;5.488;2023-02-15T03:45:56;7.30;91.70
25440;DHT22;13365;52.208;5.488;2023-02-15T03:48:29;7.30;91.80
25440;DHT22;13365;52.208;5.488;2023-02-15T03:51:00;7.40;91.70
25440;DHT22;13365;52.208;5.488;2023-02-15T03:53:46;7.50;91.60
25440;DHT22;13365;52.208;5.488;2023-02-15T03:56:13;7.40;91.40
25440;DHT22;13365;52.208;5.488;2023-02-15T03:58:39;7.40;91.50
25440;DHT22;13365;52.208;5.488;2023-02-15T04:01:34;7.30;91.60
25440;DHT22;13365;52.208;5.488;2023-02-15T04:04:23;7.30;91.50
25440;DHT22;13365;52.208;5.488;2023-02-15T04:06:50;7.30;91.60
25440;DHT22;13365;52.208;5.488;2023-02-15T04:09:16;7.30;91.60
25440;DHT22;13365;52.208;5.488;2023-02-15T04:12:00;7.40;91.60
25440;DHT22;13365;52.208;5.488;2023-02-15T04:14:25;7.50;91.70
25440;DHT22;13365;52.208;5.488;2023-02-15T04:17:10;7.50;91.50
25440;DHT22;13365;52.208;5.488;2023-02-15T04:19:36;7.40;91.50
25440;DHT22;13365;52.208;5.488;2023-02-15T04:22:20;7.50;91.50
25440;DHT22;13365;52.208;5.488;2023-02-15T04:25:04;7.50;91.40
25440;DHT22;13365;52.208;5.488;2023-02-15T04:27:50;7.50;91.30
25440;DHT22;13365;52.208;5.488;2023-02-15T04:30:18;7.50;91.50
25440;DHT22;13365;52.208;5.488;2023-02-15T04:32:44;7.30;91.30
25440;DHT22;13365;52.208;5.488;2023-02-15T04:35:10;7.30;91.30
25440;DHT22;13365;52.208;5.488;2023-02-15T04:37:37;7.30;91.20
25440;DHT22;13365;52.208;5.488;2023-02-15T04:40:05;7.20;91.00
25440;DHT22;13365;52.208;5.488;2023-02-15T04:42:31;7.20;91.00
25440;DHT22;13365;52.208;5.488;2023-02-15T04:44:56;7.20;91.00
25440;DHT22;13365;52.208;5.488;2023-02-15T04:47:22;7.20;90.80
25440;DHT22;13365;52.208;5.488;2023-02-15T04:49:48;7.20;90.60
25440;DHT22;13365;52.208;5.488;2023-02-15T04:52:14;7.20;90.60
25440;DHT22;13365;52.208;5.488;2023-02-15T04:54:39;7.10;90.50
25440;DHT22;13365;52.208;5.488;2023-02-15T04:57:05;7.00;90.60
25440;DHT22;13365;52.208;5.488;2023-02-15T04:59:31;7.00;90.60
25440;DHT22;13365;52.208;5.488;2023-02-15T05:01:57;6.90;90.60
25440;DHT22;13365;52.208;5.488;2023-02-15T05:04:23;7.00;90.60
25440;DHT22;13365;52.208;5.488;2023-02-15T05:06:49;7.00;90.20
25440;DHT22;13365;52.208;5.488;2023-02-15T05:09:15;7.00;90.00
25440;DHT22;13365;52.208;5.488;2023-02-15T05:11:40;6.80;90.00
25440;DHT22;13365;52.208;5.488;2023-02-15T05:14:06;6.80;90.30
25440;DHT22;13365;52.208;5.488;2023-02-15T05:16:32;6.80;90.60
25440;DHT22;13365;52.208;5.488;2023-02-15T05:18:57;6.70;90.60
25440;DHT22;13365;52.208;5.488;2023-02-15T05:21:23;6.70;90.70
25440;DHT22;13365;52.208;5.488;2023-02-15T05:23:49;6.70;90.80
25440;DHT22;13365;52.208;5.488;2023-02-15T05:26:20;6.70;90.90
25440;DHT22;13365;52.208;5.488;2023-02-15T05:29:05;6.80;91.00
25440;DHT22;13365;52.208;5.488;2023-02-15T05:31:31;6.80;91.00
25440;DHT22;13365;52.208;5.488;2023-02-15T05:33:57;6.70;91.10
25440;DHT22;13365;52.208;5.488;2023-02-15T05:36:22;6.70;91.30
25440;DHT22;13365;52.208;5.488;2023-02-15T05:38:48;6.70;91.40
25440;DHT22;13365;52.208;5.488;2023-02-15T05:41:14;6.80;91.40
25440;DHT22;13365;52.208;5.488;2023-02-15T05:43:39;6.70;91.20
25440;DHT22;13365;52.208;5.488;2023-02-15T05:46:05;6.80;91.40
25440;DHT22;13365;52.208;5.488;2023-02-15T05:48:31;6.90;91.30
25440;DHT22;13365;52.208;5.488;2023-02-15T05:51:09;6.90;91.20
25440;DHT22;13365;52.208;5.488;2023-02-15T05:53:36;6.80;91.00
25440;DHT22;13365;52.208;5.488;2023-02-15T05:56:03;6.80;91.10
25440;DHT22;13365;52.208;5.488;2023-02-15T05:58:31;6.90;91.20
25440;DHT22;13365;52.208;5.488;2023-02-15T06:00:57;6.90;91.20
25440;DHT22;13365;52.208;5.488;2023-02-15T06:03:23;6.90;91.20
25440;DHT22;13365;52.208;5.488;2023-02-15T06:05:51;6.90;91.30
25440;DHT22;13365;52.208;5.488;2023-02-15T06:08:17;6.90;91.20
25440;DHT22;13365;52.208;5.488;2023-02-15T06:10:44;6.80;91.30
25440;DHT22;13365;52.208;5.488;2023-02-15T06:13:10;6.80;91.40
25440;DHT22;13365;52.208;5.488;2023-02-15T06:15:36;6.90;91.60
25440;DHT22;13365;52.208;5.488;2023-02-15T06:18:01;7.00;91.50
25440;DHT22;13365;52.208;5.488;2023-02-15T06:20:27;7.00;91.40
25440;DHT22;13365;52.208;5.488;2023-02-15T06:22:53;6.90;91.10
25440;DHT22;13365;52.208;5.488;2023-02-15T06:25:18;6.90;91.30
25440;DHT22;13365;52.208;5.488;2023-02-15T06:27:44;6.80;91.30
25440;DHT22;13365;52.208;5.488;2023-02-15T06:30:10;7.00;91.70
25440;DHT22;13365;52.208;5.488;2023-02-15T06:32:36;7.00;91.70
25440;DHT22;13365;52.208;5.488;2023-02-15T06:35:02;6.90;91.70
25440;DHT22;13365;52.208;5.488;2023-02-15T06:37:27;6.90;91.90
25440;DHT22;13365;52.208;5.488;2023-02-15T06:39:53;6.90;92.10
25440;DHT22;13365;52.208;5.488;2023-02-15T06:42:18;6.90;92.30
25440;DHT22;13365;52.208;5.488;2023-02-15T06:44:44;7.00;92.60
25440;DHT22;13365;52.208;5.488;2023-02-15T06:47:10;7.00;92.70
25440;DHT22;13365;52.208;5.488;2023-02-15T06:49:36;7.00;92.60
25440;DHT22;13365;52.208;5.488;2023-02-15T06:52:02;6.90;92.80
25440;DHT22;13365;52.208;5.488;2023-02-15T06:54:28;7.00;92.90
25440;DHT22;13365;52.208;5.488;2023-02-15T06:56:53;7.00;93.10
25440;DHT22;13365;52.208;5.488;2023-02-15T06:59:19;7.10;93.20
25440;DHT22;13365;52.208;5.488;2023-02-15T07:01:44;7.20;93.10
25440;DHT22;13365;52.208;5.488;2023-02-15T07:04:10;7.20;93.10
25440;DHT22;13365;52.208;5.488;2023-02-15T07:06:35;7.30;93.20
25440;DHT22;13365;52.208;5.488;2023-02-15T07:09:01;7.20;93.10
25440;DHT22;13365;52.208;5.488;2023-02-15T07:11:27;7.30;93.30
25440;DHT22;13365;52.208;5.488;2023-02-15T07:14:11;7.30;93.30
25440;DHT22;13365;52.208;5.488;2023-02-15T07:16:37;7.30;93.40
25440;DHT22;13365;52.208;5.488;2023-02-15T07:19:03;7.30;93.50
25440;DHT22;13365;52.208;5.488;2023-02-15T07:21:29;7.30;93.50
25440;DHT22;13365;52.208;5.488;2023-02-15T07:23:56;7.40;94.00
25440;DHT22;13365;52.208;5.488;2023-02-15T07:26:23;7.50;93.80
25440;DHT22;13365;52.208;5.488;2023-02-15T07:28:49;7.40;93.80
25440;DHT22;13365;52.208;5.488;2023-02-15T07:31:14;7.50;93.90
25440;DHT22;13365;52.208;5.488;2023-02-15T07:33:40;7.60;93.80
25440;DHT22;13365;52.208;5.488;2023-02-15T07:36:06;7.70;93.90
25440;DHT22;13365;52.208;5.488;2023-02-15T07:38:36;7.90;93.90
25440;DHT22;13365;52.208;5.488;2023-02-15T07:41:04;7.90;93.60
25440;DHT22;13365;52.208;5.488;2023-02-15T07:43:33;7.90;93.60
25440;DHT22;13365;52.208;5.488;2023-02-15T07:46:00;8.00;93.70
25440;DHT22;13365;52.208;5.488;2023-02-15T07:48:26;8.10;93.60
25440;DHT22;13365;52.208;5.488;2023-02-15T07:50:52;8.20;93.50
25440;DHT22;13365;52.208;5.488;2023-02-15T07:53:17;8.30;93.50
25440;DHT22;13365;52.208;5.488;2023-02-15T07:55:43;8.30;93.40
25440;DHT22;13365;52.208;5.488;2023-02-15T07:58:08;8.30;93.40
25440;DHT22;13365;52.208;5.488;2023-02-15T08:00:34;8.40;93.60
25440;DHT22;13365;52.208;5.488;2023-02-15T08:03:19;8.40;93.70
25440;DHT22;13365;52.208;5.488;2023-02-15T08:05:47;8.50;93.40
25440;DHT22;13365;52.208;5.488;2023-02-15T08:08:13;8.50;93.30
25440;DHT22;13365;52.208;5.488;2023-02-15T08:11:28;8.50;93.20
25440;DHT22;13365;52.208;5.488;2023-02-15T08:16:38;8.60;93.50
25440;DHT22;13365;52.208;5.488;2023-02-15T08:21:37;8.60;93.70
25440;DHT22;13365;52.208;5.488;2023-02-15T08:24:04;8.60;93.70
25440;DHT22;13365;52.208;5.488;2023-02-15T08:26:30;8.80;93.70
25440;DHT22;13365;52.208;5.488;2023-02-15T08:28:58;8.80;93.50
25440;DHT22;13365;52.208;5.488;2023-02-15T08:31:24;8.80;93.60
25440;DHT22;13365;52.208;5.488;2023-02-15T08:33:51;8.90;93.80
25440;DHT22;13365;52.208;5.488;2023-02-15T08:36:20;8.90;93.90
25440;DHT22;13365;52.208;5.488;2023-02-15T08:38:46;9.00;94.00
25440;DHT22;13365;52.208;5.488;2023-02-15T08:43:46;9.10;94.40
25440;DHT22;13365;52.208;5.488;2023-02-15T08:46:14;9.10;94.70
25440;DHT22;13365;52.208;5.488;2023-02-15T08:48:40;9.10;94.70
25440;DHT22;13365;52.208;5.488;2023-02-15T08:51:14;9.10;94.70
25440;DHT22;13365;52.208;5.488;2023-02-15T08:53:42;9.10;95.00
25440;DHT22;13365;52.208;5.488;2023-02-15T08:56:09;9.30;95.10
25440;DHT22;13365;52.208;5.488;2023-02-15T08:58:35;9.50;95.10
25440;DHT22;13365;52.208;5.488;2023-02-15T09:01:01;9.60;95.10
25440;DHT22;13365;52.208;5.488;2023-02-15T09:03:29;9.80;94.90
25440;DHT22;13365;52.208;5.488;2023-02-15T09:05:59;9.80;94.70
25440;DHT22;13365;52.208;5.488;2023-02-15T09:08:26;9.90;94.80
25440;DHT22;13365;52.208;5.488;2023-02-15T09:10:52;10.00;94.70
25440;DHT22;13365;52.208;5.488;2023-02-15T09:13:17;10.10;94.50
25440;DHT22;13365;52.208;5.488;2023-02-15T09:15:43;10.00;94.50
25440;DHT22;13365;52.208;5.488;2023-02-15T09:18:08;10.10;94.60
25440;DHT22;13365;52.208;5.488;2023-02-15T09:20:37;10.20;94.30
25440;DHT22;13365;52.208;5.488;2023-02-15T09:23:03;10.30;94.30
25440;DHT22;13365;52.208;5.488;2023-02-15T09:25:28;10.40;94.00
25440;DHT22;13365;52.208;5.488;2023-02-15T09:27:54;10.40;93.70
25440;DHT22;13365;52.208;5.488;2023-02-15T09:30:19;10.40;94.20
25440;DHT22;13365;52.208;5.488;2023-02-15T09:32:45;10.80;93.90
25440;DHT22;13365;52.208;5.488;2023-02-15T09:35:12;10.80;94.00
25440;DHT22;13365;52.208;5.488;2023-02-15T09:37:37;10.80;94.20
25440;DHT22;13365;52.208;5.488;2023-02-15T09:40:04;10.80;94.10
25440;DHT22;13365;52.208;5.488;2023-02-15T09:42:42;11.10;93.90
25440;DHT22;13365;52.208;5.488;2023-02-15T09:45:42;11.30;93.60
25440;DHT22;13365;52.208;5.488;2023-02-15T09:48:38;11.40;93.90
25440;DHT22;13365;52.208;5.488;2023-02-15T09:51:12;11.40;93.10
25440;DHT22;13365;52.208;5.488;2023-02-15T09:59:05;11.40;93.20
25440;DHT22;13365;52.208;5.488;2023-02-15T10:04:29;11.80;92.90
25440;DHT22;13365;52.208;5.488;2023-02-15T10:12:43;12.20;92.50
25440;DHT22;13365;52.208;5.488;2023-02-15T10:15:27;12.40;92.30
25440;DHT22;13365;52.208;5.488;2023-02-15T10:18:34;12.50;92.20
25440;DHT22;13365;52.208;5.488;2023-02-15T10:23:38;12.70;92.10
25440;DHT22;13365;52.208;5.488;2023-02-15T10:26:23;12.80;92.10
25440;DHT22;13365;52.208;5.488;2023-02-15T10:29:02;13.00;92.30
25440;DHT22;13365;52.208;5.488;2023-02-15T10:31:37;13.00;91.40
25440;DHT22;13365;52.208;5.488;2023-02-15T10:34:22;13.10;91.40
25440;DHT22;13365;52.208;5.488;2023-02-15T10:50:45;13.80;90.90
25440;DHT22;13365;52.208;5.488;2023-02-15T10:53:37;13.90;90.60
25440;DHT22;13365;52.208;5.488;2023-02-15T11:02:37;14.50;90.20
25440;DHT22;13365;52.208;5.488;2023-02-15T11:05:31;14.80;89.70
25440;DHT22;13365;52.208;5.488;2023-02-15T11:08:00;15.10;88.20
25440;DHT22;13365;52.208;5.488;2023-02-15T11:10:42;15.10;85.10
25440;DHT22;13365;52.208;5.488;2023-02-15T11:13:16;15.10;85.90
25440;DHT22;13365;52.208;5.488;2023-02-15T11:15:47;15.10;85.30
25440;DHT22;13365;52.208;5.488;2023-02-15T11:21:22;15.00;86.60
25440;DHT22;13365;52.208;5.488;2023-02-15T11:23:49;15.10;85.70
25440;DHT22;13365;52.208;5.488;2023-02-15T11:26:21;15.20;86.20
25440;DHT22;13365;52.208;5.488;2023-02-15T11:28:54;15.20;85.40
25440;DHT22;13365;52.208;5.488;2023-02-15T11:31:24;15.30;83.80
25440;DHT22;13365;52.208;5.488;2023-02-15T11:34:12;15.40;84.00
25440;DHT22;13365;52.208;5.488;2023-02-15T11:36:41;15.40;84.30
25440;DHT22;13365;52.208;5.488;2023-02-15T11:39:11;15.40;83.50
25440;DHT22;13365;52.208;5.488;2023-02-15T11:41:41;15.50;82.70
25440;DHT22;13365;52.208;5.488;2023-02-15T11:44:16;15.70;83.60
25440;DHT22;13365;52.208;5.488;2023-02-15T11:46:42;15.50;84.50
25440;DHT22;13365;52.208;5.488;2023-02-15T11:51:53;15.70;83.60
25440;DHT22;13365;52.208;5.488;2023-02-15T11:54:29;15.70;84.30
25440;DHT22;13365;52.208;5.488;2023-02-15T11:57:00;15.70;82.70
25440;DHT22;13365;52.208;5.488;2023-02-15T11:59:32;15.80;83.10
25440;DHT22;13365;52.208;5.488;2023-02-15T12:01:59;16.00;83.70
25440;DHT22;13365;52.208;5.488;2023-02-15T12:04:26;16.00;83.30
25440;DHT22;13365;52.208;5.488;2023-02-15T12:06:58;16.00;82.00
25440;DHT22;13365;52.208;5.488;2023-02-15T12:09:48;16.10;82.60
25440;DHT22;13365;52.208;5.488;2023-02-15T12:12:24;16.00;82.50
25440;DHT22;13365;52.208;5.488;2023-02-15T12:14:58;16.20;83.10
25440;DHT22;13365;52.208;5.488;2023-02-15T12:17:26;16.40;81.80
25440;DHT22;13365;52.208;5.488;2023-02-15T12:19:56;16.50;81.50
25440;DHT22;13365;52.208;5.488;2023-02-15T12:22:29;16.50;82.20
25440;DHT22;13365;52.208;5.488;2023-02-15T12:24:58;16.40;81.70
25440;DHT22;13365;52.208;5.488;2023-02-15T12:27:29;16.60;81.50
25440;DHT22;13365;52.208;5.488;2023-02-15T12:29:59;16.60;81.60
25440;DHT22;13365;52.208;5.488;2023-02-15T12:32:31;16.60;80.80
25440;DHT22;13365;52.208;5.488;2023-02-15T12:35:07;16.60;80.60
25440;DHT22;13365;52.208;5.488;2023-02-15T12:37:34;16.70;80.90
25440;DHT22;13365;52.208;5.488;2023-02-15T12:40:18;16.70;80.00
25440;DHT22;13365;52.208;5.488;2023-02-15T12:42:44;16.80;81.70
25440;DHT22;13365;52.208;5.488;2023-02-15T12:45:26;16.80;81.30
25440;DHT22;13365;52.208;5.488;2023-02-15T12:48:18;16.90;81.10
25440;DHT22;13365;52.208;5.488;2023-02-15T12:50:46;16.90;80.80
25440;DHT22;13365;52.208;5.488;2023-02-15T12:53:32;16.90;81.40
25440;DHT22;13365;52.208;5.488;2023-02-15T12:56:03;17.00;81.70
25440;DHT22;13365;52.208;5.488;2023-02-15T12:58:31;17.30;79.70
25440;DHT22;13365;52.208;5.488;2023-02-15T13:01:17;17.40;79.70
25440;DHT22;13365;52.208;5.488;2023-02-15T13:04:04;17.60;78.80
25440;DHT22;13365;52.208;5.488;2023-02-15T13:06:33;17.70;77.60
25440;DHT22;13365;52.208;5.488;2023-02-15T13:09:15;17.80;77.10
25440;DHT22;13365;52.208;5.488;2023-02-15T13:11:42;17.70;77.40
25440;DHT22;13365;52.208;5.488;2023-02-15T13:14:31;17.70;78.10
25440;DHT22;13365;52.208;5.488;2023-02-15T13:17:00;17.90;77.40
25440;DHT22;13365;52.208;5.488;2023-02-15T13:19:37;17.90;76.60
25440;DHT22;13365;52.208;5.488;2023-02-15T13:22:15;17.70;76.90
25440;DHT22;13365;52.208;5.488;2023-02-15T13:24:59;17.60;78.60
25440;DHT22;13365;52.208;5.488;2023-02-15T13:27:38;17.50;77.20
25440;DHT22;13365;52.208;5.488;2023-02-15T13:32:44;17.50;77.80
25440;DHT22;13365;52.208;5.488;2023-02-15T13:35:16;17.40;78.00
25440;DHT22;13365;52.208;5.488;2023-02-15T13:38:37;17.70;78.60
25440;DHT22;13365;52.208;5.488;2023-02-15T13:40:48;17.80;78.60
25440;DHT22;13365;52.208;5.488;2023-02-15T13:46:34;17.70;78.30
25440;DHT22;13365;52.208;5.488;2023-02-15T13:49:31;17.60;78.40
25440;DHT22;13365;52.208;5.488;2023-02-15T13:52:11;17.70;77.70
25440;DHT22;13365;52.208;5.488;2023-02-15T14:00:48;17.50;78.60
25440;DHT22;13365;52.208;5.488;2023-02-15T14:03:39;17.60;78.60
25440;DHT22;13365;52.208;5.488;2023-02-15T14:09:29;17.50;78.60
25440;DHT22;13365;52.208;5.488;2023-02-15T14:31:36;17.70;79.50
25440;DHT22;13365;52.208;5.488;2023-02-15T14:34:03;17.70;78.90
25440;DHT22;13365;52.208;5.488;2023-02-15T14:36:30;17.60;79.10
25440;DHT22;13365;52.208;5.488;2023-02-15T14:39:35;17.80;79.40
25440;DHT22;13365;52.208;5.488;2023-02-15T14:42:56;17.70;79.40
25440;DHT22;13365;52.208;5.488;2023-02-15T14:45:28;17.70;79.10
25440;DHT22;13365;52.208;5.488;2023-02-15T14:48:21;17.60;79.90
25440;DHT22;13365;52.208;5.488;2023-02-15T14:50:48;17.70;79.40
25440;DHT22;13365;52.208;5.488;2023-02-15T14:58:36;17.50;79.60
25440;DHT22;13365;52.208;5.488;2023-02-15T15:01:09;17.60;79.10
25440;DHT22;13365;52.208;5.488;2023-02-15T15:03:36;17.50;79.60
25440;DHT22;13365;52.208;5.488;2023-02-15T15:06:28;17.60;79.70
25440;DHT22;13365;52.208;5.488;2023-02-15T15:09:11;17.50;79.30
25440;DHT22;13365;52.208;5.488;2023-02-15T15:11:44;17.50;79.70
25440;DHT22;13365;52.208;5.488;2023-02-15T15:14:35;17.40;79.80
25440;DHT22;13365;52.208;5.488;2023-02-15T15:16:56;17.40;80.00
25440;DHT22;13365;52.208;5.488;2023-02-15T15:22:23;17.60;80.40
25440;DHT22;13365;52.208;5.488;2023-02-15T15:25:08;17.60;79.90
25440;DHT22;13365;52.208;5.488;2023-02-15T15:27:42;17.70;79.70
25440;DHT22;13365;52.208;5.488;2023-02-15T15:49:42;17.40;79.00
25440;DHT22;13365;52.208;5.488;2023-02-15T15:52:15;17.50;79.20
25440;DHT22;13365;52.208;5.488;2023-02-15T15:54:42;17.50;79.00
25440;DHT22;13365;52.208;5.488;2023-02-15T15:57:35;17.50;78.70
25440;DHT22;13365;52.208;5.488;2023-02-15T16:00:03;17.40;78.40
25440;DHT22;13365;52.208;5.488;2023-02-15T16:02:29;17.40;78.20
25440;DHT22;13365;52.208;5.488;2023-02-15T16:04:57;17.20;78.20
25440;DHT22;13365;52.208;5.488;2023-02-15T16:07:31;17.20;78.20
25440;DHT22;13365;52.208;5.488;2023-02-15T16:10:01;17.20;78.00
25440;DHT22;13365;52.208;5.488;2023-02-15T16:12:47;17.20;77.90
25440;DHT22;13365;52.208;5.488;2023-02-15T16:15:17;17.10;78.10
25440;DHT22;13365;52.208;5.488;2023-02-15T16:17:48;17.00;78.10
25440;DHT22;13365;52.208;5.488;2023-02-15T16:20:22;16.90;78.20
25440;DHT22;13365;52.208;5.488;2023-02-15T16:22:57;16.70;78.40
25440;DHT22;13365;52.208;5.488;2023-02-15T16:25:47;16.70;78.20
25440;DHT22;13365;52.208;5.488;2023-02-15T16:28:16;16.70;78.20
25440;DHT22;13365;52.208;5.488;2023-02-15T16:30:44;16.50;78.10
25440;DHT22;13365;52.208;5.488;2023-02-15T16:33:11;16.40;78.30
25440;DHT22;13365;52.208;5.488;2023-02-15T16:35:57;16.40;78.90
25440;DHT22;13365;52.208;5.488;2023-02-15T16:41:09;16.30;79.10
25440;DHT22;13365;52.208;5.488;2023-02-15T16:43:37;16.20;79.10
25440;DHT22;13365;52.208;5.488;2023-02-15T16:46:05;16.10;79.00
25440;DHT22;13365;52.208;5.488;2023-02-15T16:48:32;16.00;79.20
25440;DHT22;13365;52.208;5.488;2023-02-15T16:50:59;15.80;79.30
25440;DHT22;13365;52.208;5.488;2023-02-15T16:53:27;15.70;79.60
25440;DHT22;13365;52.208;5.488;2023-02-15T16:56:02;15.50;79.80
25440;DHT22;13365;52.208;5.488;2023-02-15T16:58:29;15.40;80.00
25440;DHT22;13365;52.208;5.488;2023-02-15T17:00:57;15.20;80.50
25440;DHT22;13365;52.208;5.488;2023-02-15T17:03:24;15.00;81.00
25440;DHT22;13365;52.208;5.488;2023-02-15T17:05:56;14.90;81.90
25440;DHT22;13365;52.208;5.488;2023-02-15T17:08:43;14.80;82.20
25440;DHT22;13365;52.208;5.488;2023-02-15T17:11:18;14.80;82.60
25440;DHT22;13365;52.208;5.488;2023-02-15T17:16:48;14.60;83.20
25440;DHT22;13365;52.208;5.488;2023-02-15T17:19:22;14.60;83.50
25440;DHT22;13365;52.208;5.488;2023-02-15T17:21:58;14.50;83.40
25440;DHT22;13365;52.208;5.488;2023-02-15T17:26:57;14.20;84.30
25440;DHT22;13365;52.208;5.488;2023-02-15T17:29:39;14.00;84.90
25440;DHT22;13365;52.208;5.488;2023-02-15T17:32:22;13.80;85.60
25440;DHT22;13365;52.208;5.488;2023-02-15T17:34:56;13.80;86.00
25440;DHT22;13365;52.208;5.488;2023-02-15T17:37:43;13.90;86.10
25440;DHT22;13365;52.208;5.488;2023-02-15T17:42:49;13.70;86.70
25440;DHT22;13365;52.208;5.488;2023-02-15T17:45:15;13.60;87.20
25440;DHT22;13365;52.208;5.488;2023-02-15T17:47:42;13.50;87.40
25440;DHT22;13365;52.208;5.488;2023-02-15T17:50:18;13.40;87.60
25440;DHT22;13365;52.208;5.488;2023-02-15T17:52:45;13.50;87.30
25440;DHT22;13365;52.208;5.488;2023-02-15T17:55:15;13.60;87.40
25440;DHT22;13365;52.208;5.488;2023-02-15T17:58:00;13.50;87.20
25440;DHT22;13365;52.208;5.488;2023-02-15T18:00:27;13.50;87.20
25440;DHT22;13365;52.208;5.488;2023-02-15T18:03:12;13.60;87.20
25440;DHT22;13365;52.208;5.488;2023-02-15T18:05:57;13.50;87.10
25440;DHT22;13365;52.208;5.488;2023-02-15T18:08:42;13.50;87.40
25440;DHT22;13365;52.208;5.488;2023-02-15T18:11:26;13.50;86.90
25440;DHT22;13365;52.208;5.488;2023-02-15T18:14:08;13.60;86.80
25440;DHT22;13365;52.208;5.488;2023-02-15T18:16:40;13.60;86.60
25440;DHT22;13365;52.208;5.488;2023-02-15T18:19:15;13.60;86.60
25440;DHT22;13365;52.208;5.488;2023-02-15T18:21:41;13.50;86.50
25440;DHT22;13365;52.208;5.488;2023-02-15T18:24:16;13.50;86.50
25440;DHT22;13365;52.208;5.488;2023-02-15T18:26:41;13.40;86.60
25440;DHT22;13365;52.208;5.488;2023-02-15T18:29:07;13.40;86.60
25440;DHT22;13365;52.208;5.488;2023-02-15T18:31:33;13.40;87.40